sensor_id;sensor_type;location;lat;lon;timestamp;temperature;humidity
15969;DHT22;8085;53.472;9.794;2023-04-26T00:01:58;3.80;99.90
15969;DHT22;8085;53.472;9.794;2023-04-26T00:04:26;3.70;99.90
15969;DHT22;8085;53.472;9.794;2023-04-26T00:06:57;3.70;99.90
15969;DHT22;8085;53.472;9.794;2023-04-26T00:09:25;3.70;99.90
15969;DHT22;8085;53.472;9.794;2023-04-26T00:11:52;3.80;99.90
15969;DHT22;8085;53.472;9.794;2023-04-26T00:14:19;3.70;99.90
15969;DHT22;8085;53.472;9.794;2023-04-26T00:16:46;3.70;99.90
15969;DHT22;8085;53.472;9.794;2023-04-26T00:19:15;3.60;99.90
15969;DHT22;8085;53.472;9.794;2023-04-26T00:21:42;3.60;99.90
15969;DHT22;8085;53.472;9.794;2023-04-26T00:24:10;3.60;99.90
15969;DHT22;8085;53.472;9.794;2023-04-26T00:26:37;3.50;99.90
15969;DHT22;8085;53.472;9.794;2023-04-26T00:29:04;3.60;99.90
15969;DHT22;8085;53.472;9.794;2023-04-26T00:31:31;3.60;99.90
15969;DHT22;8085;53.472;9.794;2023-04-26T00:33:58;3.60;99.90
15969;DHT22;8085;53.472;9.794;2023-04-26T00:36:26;3.50;99.90
15969;DHT22;8085;53.472;9.794;2023-04-26T00:38:53;3.50;99.90
15969;DHT22;8085;53.472;9.794;2023-04-26T00:41:20;3.60;99.90
15969;DHT22;8085;53.472;9.794;2023-04-26T00:43:49;3.50;99.90
15969;DHT22;8085;53.472;9.794;2023-04-26T00:46:16;3.50;99.90
15969;DHT22;8085;53.472;9.794;2023-04-26T00:48:43;3.50;99.90
15969;DHT22;8085;53.472;9.794;2023-04-26T00:51:11;3.40;99.90
15969;DHT22;8085;53.472;9.794;2023-04-26T00:53:40;3.50;99.90
15969;DHT22;8085;53.472;9.794;2023-04-26T00:56:08;3.40;99.90
15969;DHT22;8085;53.472;9.794;2023-04-26T00:58:36;3.40;99.90
15969;DHT22;8085;53.472;9.794;2023-04-26T01:01:03;3.40;99.90
15969;DHT22;8085;53.472;9.794;2023-04-26T01:03:30;3.40;99.90
15969;DHT22;8085;53.472;9.794;2023-04-26T01:05:57;3.40;99.90
15969;DHT22;8085;53.472;9.794;2023-04-26T01:08:24;3.30;99.90
15969;DHT22;8085;53.472;9.794;2023-04-26T01:10:53;3.30;99.90
15969;DHT22;8085;53.472;9.794;2023-04-26T01:13:21;3.40;99.90
15969;DHT22;8085;53.472;9.794;2023-04-26T01:15:48;3.40;99.90
15969;DHT22;8085;53.472;9.794;2023-04-26T01:18:15;3.50;99.90
15969;DHT22;8085;53.472;9.794;2023-04-26T01:20:42;3.50;99.90
15969;DHT22;8085;53.472;9.794;2023-04-26T01:23:12;3.50;99.90
15969;DHT22;8085;53.472;9.794;2023-04-26T01:25:40;3.40;99.90
15969;DHT22;8085;53.472;9.794;2023-04-26T01:28:07;3.40;99.90
15969;DHT22;8085;53.472;9.794;2023-04-26T01:30:34;3.40;99.90
15969;DHT22;8085;53.472;9.794;2023-04-26T01:33:01;3.40;99.90
15969;DHT22;8085;53.472;9.794;2023-04-26T01:35:28;3.50;99.90
15969;DHT22;8085;53.472;9.794;2023-04-26T01:37:55;3.40;99.90
15969;DHT22;8085;53.472;9.794;2023-04-26T01:40:24;3.50;99.90
15969;DHT22;8085;53.472;9.794;2023-04-26T01:42:51;3.50;99.90
15969;DHT22;8085;53.472;9.794;2023-04-26T01:45:18;3.50;99.90
15969;DHT22;8085;53.472;9.794;2023-04-26T01:47:45;3.50;99.90
15969;DHT22;8085;53.472;9.794;2023-04-26T01:50:12;3.50;99.90
15969;DHT22;8085;53.472;9.794;2023-04-26T01:52:39;3.50;99.90
15969;DHT22;8085;53.472;9.794;2023-04-26T01:55:07;3.50;99.90
15969;DHT22;8085;53.472;9.794;2023-04-26T01:57:35;3.50;99.90
15969;DHT22;8085;53.472;9.794;2023-04-26T02:00:03;3.40;99.90
15969;DHT22;8085;53.472;9.794;2023-04-26T02:02:30;3.40;99.90
15969;DHT22;8085;53.472;9.794;2023-04-26T02:04:57;3.40;99.90
15969;DHT22;8085;53.472;9.794;2023-04-26T02:07:24;3.40;99.90
15969;DHT22;8085;53.472;9.794;2023-04-26T02:09:51;3.40;99.90
15969;DHT22;8085;53.472;9.794;2023-04-26T02:12:18;3.40;99.90
15969;DHT22;8085;53.472;9.794;2023-04-26T02:14:46;3.30;99.90
15969;DHT22;8085;53.472;9.794;2023-04-26T02:17:13;3.40;99.90
15969;DHT22;8085;53.472;9.794;2023-04-26T02:19:41;3.40;99.90
15969;DHT22;8085;53.472;9.794;2023-04-26T02:22:08;3.40;99.90
15969;DHT22;8085;53.472;9.794;2023-04-26T02:24:35;3.50;99.90
15969;DHT22;8085;53.472;9.794;2023-04-26T02:27:03;3.50;99.90
15969;DHT22;8085;53.472;9.794;2023-04-26T02:29:30;3.40;99.90
15969;DHT22;8085;53.472;9.794;2023-04-26T02:31:58;3.50;99.90
15969;DHT22;8085;53.472;9.794;2023-04-26T02:34:25;3.40;99.90
15969;DHT22;8085;53.472;9.794;2023-04-26T02:36:52;3.40;99.90
15969;DHT22;8085;53.472;9.794;2023-04-26T02:39:19;3.40;99.90
15969;DHT22;8085;53.472;9.794;2023-04-26T02:41:46;3.40;99.90
15969;DHT22;8085;53.472;9.794;2023-04-26T02:44:13;3.40;99.90
15969;DHT22;8085;53.472;9.794;2023-04-26T02:46:40;3.40;99.90
15969;DHT22;8085;53.472;9.794;2023-04-26T02:49:09;3.30;99.90
15969;DHT22;8085;53.472;9.794;2023-04-26T02:51:36;3.30;99.90
15969;DHT22;8085;53.472;9.794;2023-04-26T02:54:03;3.30;99.90
15969;DHT22;8085;53.472;9.794;2023-04-26T02:56:30;3.30;99.90
15969;DHT22;8085;53.472;9.794;2023-04-26T02:58:57;3.30;99.90
15969;DHT22;8085;53.472;9.794;2023-04-26T03:01:24;3.30;99.90
15969;DHT22;8085;53.472;9.794;2023-04-26T03:03:51;3.30;99.90
15969;DHT22;8085;53.472;9.794;2023-04-26T03:06:20;3.30;99.90
15969;DHT22;8085;53.472;9.794;2023-04-26T03:08:47;3.40;99.90
15969;DHT22;8085;53.472;9.794;2023-04-26T03:11:14;3.40;99.90
15969;DHT22;8085;53.472;9.794;2023-04-26T03:13:41;3.50;99.90
15969;DHT22;8085;53.472;9.794;2023-04-26T03:16:08;3.50;99.90
15969;DHT22;8085;53.472;9.794;2023-04-26T03:18:35;3.50;99.90
15969;DHT22;8085;53.472;9.794;2023-04-26T03:21:02;3.40;99.90
15969;DHT22;8085;53.472;9.794;2023-04-26T03:23:31;3.40;99.90
15969;DHT22;8085;53.472;9.794;2023-04-26T03:25:58;3.40;99.90
15969;DHT22;8085;53.472;9.794;2023-04-26T03:28:25;3.40;99.90
15969;DHT22;8085;53.472;9.794;2023-04-26T03:30:52;3.40;99.90
15969;DHT22;8085;53.472;9.794;2023-04-26T03:33:20;3.30;99.90
15969;DHT22;8085;53.472;9.794;2023-04-26T03:35:47;3.20;99.90
15969;DHT22;8085;53.472;9.794;2023-04-26T03:38:14;3.20;99.90
15969;DHT22;8085;53.472;9.794;2023-04-26T03:40:43;3.20;99.90
15969;DHT22;8085;53.472;9.794;2023-04-26T03:43:10;3.10;99.90
15969;DHT22;8085;53.472;9.794;2023-04-26T03:45:37;3.10;99.90
15969;DHT22;8085;53.472;9.794;2023-04-26T03:48:04;3.00;99.90
15969;DHT22;8085;53.472;9.794;2023-04-26T03:50:31;3.00;99.90
15969;DHT22;8085;53.472;9.794;2023-04-26T03:52:58;2.90;99.90
15969;DHT22;8085;53.472;9.794;2023-04-26T03:55:26;3.00;99.90
15969;DHT22;8085;53.472;9.794;2023-04-26T03:57:54;2.90;99.90
15969;DHT22;8085;53.472;9.794;2023-04-26T04:00:21;2.90;99.90
15969;DHT22;8085;53.472;9.794;2023-04-26T04:02:48;2.80;99.90
15969;DHT22;8085;53.472;9.794;2023-04-26T04:05:15;2.80;99.90
15969;DHT22;8085;53.472;9.794;2023-04-26T04:07:42;2.80;99.90
15969;DHT22;8085;53.472;9.794;2023-04-26T04:10:10;2.80;99.90
15969;DHT22;8085;53.472;9.794;2023-04-26T04:12:37;2.70;99.90
15969;DHT22;8085;53.472;9.794;2023-04-26T04:15:06;2.70;99.90
15969;DHT22;8085;53.472;9.794;2023-04-26T04:17:33;2.70;99.90
15969;DHT22;8085;53.472;9.794;2023-04-26T04:20:01;2.70;99.90
15969;DHT22;8085;53.472;9.794;2023-04-26T04:22:31;2.70;99.90
15969;DHT22;8085;53.472;9.794;2023-04-26T04:24:58;2.80;99.90
15969;DHT22;8085;53.472;9.794;2023-04-26T04:27:25;2.60;99.90
15969;DHT22;8085;53.472;9.794;2023-04-26T04:29:52;2.70;99.90
15969;DHT22;8085;53.472;9.794;2023-04-26T04:32:21;2.70;99.90
15969;DHT22;8085;53.472;9.794;2023-04-26T04:34:49;2.80;99.90
15969;DHT22;8085;53.472;9.794;2023-04-26T04:37:18;2.70;99.90
15969;DHT22;8085;53.472;9.794;2023-04-26T04:39:45;2.80;99.90
15969;DHT22;8085;53.472;9.794;2023-04-26T04:42:12;2.80;99.90
15969;DHT22;8085;53.472;9.794;2023-04-26T04:44:40;2.80;99.90
15969;DHT22;8085;53.472;9.794;2023-04-26T04:47:07;2.80;99.90
15969;DHT22;8085;53.472;9.794;2023-04-26T04:49:36;2.90;99.90
15969;DHT22;8085;53.472;9.794;2023-04-26T04:52:03;3.00;99.90
15969;DHT22;8085;53.472;9.794;2023-04-26T04:54:31;3.40;99.90
15969;DHT22;8085;53.472;9.794;2023-04-26T04:56:59;4.00;99.90
15969;DHT22;8085;53.472;9.794;2023-04-26T04:59:27;4.30;99.90
15969;DHT22;8085;53.472;9.794;2023-04-26T05:01:54;4.30;99.90
15969;DHT22;8085;53.472;9.794;2023-04-26T05:04:21;4.00;99.90
15969;DHT22;8085;53.472;9.794;2023-04-26T05:06:50;4.10;99.90
15969;DHT22;8085;53.472;9.794;2023-04-26T05:09:17;4.30;99.90
15969;DHT22;8085;53.472;9.794;2023-04-26T05:11:44;4.40;99.90
15969;DHT22;8085;53.472;9.794;2023-04-26T05:14:12;4.40;99.90
15969;DHT22;8085;53.472;9.794;2023-04-26T05:16:39;4.20;99.90
15969;DHT22;8085;53.472;9.794;2023-04-26T05:19:06;4.20;99.90
15969;DHT22;8085;53.472;9.794;2023-04-26T05:21:33;4.60;99.90
15969;DHT22;8085;53.472;9.794;2023-04-26T05:24:01;5.50;99.90
15969;DHT22;8085;53.472;9.794;2023-04-26T05:26:29;6.50;99.90
15969;DHT22;8085;53.472;9.794;2023-04-26T05:28:56;7.10;99.90
15969;DHT22;8085;53.472;9.794;2023-04-26T05:31:23;7.50;70.10
15969;DHT22;8085;53.472;9.794;2023-04-26T05:33:50;7.50;14.70
15969;DHT22;8085;53.472;9.794;2023-04-26T05:36:17;7.30;14.00
15969;DHT22;8085;53.472;9.794;2023-04-26T05:38:44;6.90;25.70
15969;DHT22;8085;53.472;9.794;2023-04-26T05:41:13;6.60;46.30
15969;DHT22;8085;53.472;9.794;2023-04-26T05:43:40;6.00;58.90
15969;DHT22;8085;53.472;9.794;2023-04-26T05:46:07;5.90;59.10
15969;DHT22;8085;53.472;9.794;2023-04-26T05:48:34;5.50;75.70
15969;DHT22;8085;53.472;9.794;2023-04-26T05:51:01;5.00;94.50
15969;DHT22;8085;53.472;9.794;2023-04-26T05:53:28;4.60;99.90
15969;DHT22;8085;53.472;9.794;2023-04-26T05:55:55;4.60;99.90
15969;DHT22;8085;53.472;9.794;2023-04-26T05:58:23;4.60;99.90
15969;DHT22;8085;53.472;9.794;2023-04-26T06:00:50;4.60;99.90
15969;DHT22;8085;53.472;9.794;2023-04-26T06:03:17;4.80;99.90
15969;DHT22;8085;53.472;9.794;2023-04-26T06:05:44;4.90;99.90
15969;DHT22;8085;53.472;9.794;2023-04-26T06:08:11;5.00;99.90
15969;DHT22;8085;53.472;9.794;2023-04-26T06:10:44;5.10;99.90
15969;DHT22;8085;53.472;9.794;2023-04-26T06:13:11;5.20;99.90
15969;DHT22;8085;53.472;9.794;2023-04-26T06:15:40;5.40;99.90
15969;DHT22;8085;53.472;9.794;2023-04-26T06:18:07;5.40;99.10
15969;DHT22;8085;53.472;9.794;2023-04-26T06:20:33;5.30;94.60
15969;DHT22;8085;53.472;9.794;2023-04-26T06:23:01;5.40;96.10
15969;DHT22;8085;53.472;9.794;2023-04-26T06:25:29;5.20;95.20
15969;DHT22;8085;53.472;9.794;2023-04-26T06:27:56;5.10;99.80
15969;DHT22;8085;53.472;9.794;2023-04-26T06:30:24;5.10;99.90
15969;DHT22;8085;53.472;9.794;2023-04-26T06:32:52;5.20;99.90
15969;DHT22;8085;53.472;9.794;2023-04-26T06:35:19;5.30;96.30
15969;DHT22;8085;53.472;9.794;2023-04-26T06:37:53;5.40;90.30
15969;DHT22;8085;53.472;9.794;2023-04-26T06:40:20;5.50;90.80
15969;DHT22;8085;53.472;9.794;2023-04-26T06:42:47;5.60;79.80
15969;DHT22;8085;53.472;9.794;2023-04-26T06:45:14;5.70;81.90
15969;DHT22;8085;53.472;9.794;2023-04-26T06:47:43;5.80;71.20
15969;DHT22;8085;53.472;9.794;2023-04-26T06:50:12;6.00;78.30
15969;DHT22;8085;53.472;9.794;2023-04-26T06:52:39;6.10;45.80
15969;DHT22;8085;53.472;9.794;2023-04-26T06:55:07;6.20;26.80
15969;DHT22;8085;53.472;9.794;2023-04-26T06:57:34;6.50;12.70
15969;DHT22;8085;53.472;9.794;2023-04-26T07:00:01;6.60;1.00
15969;DHT22;8085;53.472;9.794;2023-04-26T07:02:29;6.70;1.00
15969;DHT22;8085;53.472;9.794;2023-04-26T07:04:56;6.40;1.00
15969;DHT22;8085;53.472;9.794;2023-04-26T07:07:24;6.00;22.00
15969;DHT22;8085;53.472;9.794;2023-04-26T07:09:51;5.50;45.20
15969;DHT22;8085;53.472;9.794;2023-04-26T07:12:18;5.30;20.00
15969;DHT22;8085;53.472;9.794;2023-04-26T07:14:45;5.30;14.70
15969;DHT22;8085;53.472;9.794;2023-04-26T07:17:12;5.30;31.90
15969;DHT22;8085;53.472;9.794;2023-04-26T07:19:39;5.40;59.20
15969;DHT22;8085;53.472;9.794;2023-04-26T07:22:06;5.60;77.00
15969;DHT22;8085;53.472;9.794;2023-04-26T07:24:34;5.80;81.80
15969;DHT22;8085;53.472;9.794;2023-04-26T07:27:01;5.90;86.80
15969;DHT22;8085;53.472;9.794;2023-04-26T07:29:28;6.10;57.00
15969;DHT22;8085;53.472;9.794;2023-04-26T07:31:55;6.30;34.90
15969;DHT22;8085;53.472;9.794;2023-04-26T07:34:23;6.40;9.30
15969;DHT22;8085;53.472;9.794;2023-04-26T07:36:51;6.70;4.70
15969;DHT22;8085;53.472;9.794;2023-04-26T07:39:18;6.80;1.00
15969;DHT22;8085;53.472;9.794;2023-04-26T07:41:46;7.00;1.00
15969;DHT22;8085;53.472;9.794;2023-04-26T07:44:13;7.00;1.00
15969;DHT22;8085;53.472;9.794;2023-04-26T07:46:40;7.10;1.00
15969;DHT22;8085;53.472;9.794;2023-04-26T07:49:08;7.30;1.00
15969;DHT22;8085;53.472;9.794;2023-04-26T07:51:35;7.40;1.00
15969;DHT22;8085;53.472;9.794;2023-04-26T07:54:02;7.70;1.00
15969;DHT22;8085;53.472;9.794;2023-04-26T07:56:29;7.80;1.00
15969;DHT22;8085;53.472;9.794;2023-04-26T07:58:58;7.70;1.00
15969;DHT22;8085;53.472;9.794;2023-04-26T08:01:25;7.80;1.00
15969;DHT22;8085;53.472;9.794;2023-04-26T08:03:54;7.70;1.00
15969;DHT22;8085;53.472;9.794;2023-04-26T08:06:21;7.80;1.00
15969;DHT22;8085;53.472;9.794;2023-04-26T08:08:48;7.70;1.00
15969;DHT22;8085;53.472;9.794;2023-04-26T08:11:17;7.60;1.00
15969;DHT22;8085;53.472;9.794;2023-04-26T08:13:44;7.60;1.00
15969;DHT22;8085;53.472;9.794;2023-04-26T08:16:12;7.80;1.00
15969;DHT22;8085;53.472;9.794;2023-04-26T08:18:39;7.80;1.00
15969;DHT22;8085;53.472;9.794;2023-04-26T08:21:06;7.90;1.00
15969;DHT22;8085;53.472;9.794;2023-04-26T08:23:34;7.70;1.00
15969;DHT22;8085;53.472;9.794;2023-04-26T08:26:02;7.70;1.00
15969;DHT22;8085;53.472;9.794;2023-04-26T08:28:28;7.50;1.00
15969;DHT22;8085;53.472;9.794;2023-04-26T08:30:55;7.50;1.00
15969;DHT22;8085;53.472;9.794;2023-04-26T08:33:24;7.50;1.00
15969;DHT22;8085;53.472;9.794;2023-04-26T08:35:51;7.50;1.00
15969;DHT22;8085;53.472;9.794;2023-04-26T08:38:18;7.40;1.00
15969;DHT22;8085;53.472;9.794;2023-04-26T08:40:47;7.40;1.00
15969;DHT22;8085;53.472;9.794;2023-04-26T08:43:14;7.50;1.00
15969;DHT22;8085;53.472;9.794;2023-04-26T08:45:44;7.50;1.00
15969;DHT22;8085;53.472;9.794;2023-04-26T08:48:12;7.70;1.00
15969;DHT22;8085;53.472;9.794;2023-04-26T08:50:43;8.10;1.00
15969;DHT22;8085;53.472;9.794;2023-04-26T08:53:13;8.20;1.00
15969;DHT22;8085;53.472;9.794;2023-04-26T08:55:46;7.90;1.00
15969;DHT22;8085;53.472;9.794;2023-04-26T08:58:14;7.90;1.00
15969;DHT22;8085;53.472;9.794;2023-04-26T09:00:42;8.50;1.00
15969;DHT22;8085;53.472;9.794;2023-04-26T09:03:10;9.20;1.00
15969;DHT22;8085;53.472;9.794;2023-04-26T09:05:38;9.40;1.00
15969;DHT22;8085;53.472;9.794;2023-04-26T09:08:12;9.10;99.90
15969;DHT22;8085;53.472;9.794;2023-04-26T09:10:41;9.40;99.90
15969;DHT22;8085;53.472;9.794;2023-04-26T09:13:07;9.50;1.00
15969;DHT22;8085;53.472;9.794;2023-04-26T09:15:36;9.30;99.90
15969;DHT22;8085;53.472;9.794;2023-04-26T09:18:16;9.70;99.90
15969;DHT22;8085;53.472;9.794;2023-04-26T09:20:44;10.20;99.90
15969;DHT22;8085;53.472;9.794;2023-04-26T09:23:13;10.40;99.90
15969;DHT22;8085;53.472;9.794;2023-04-26T09:25:41;10.50;1.00
15969;DHT22;8085;53.472;9.794;2023-04-26T09:28:18;10.60;16.30
15969;DHT22;8085;53.472;9.794;2023-04-26T09:30:46;10.70;99.90
15969;DHT22;8085;53.472;9.794;2023-04-26T09:33:13;10.30;1.00
15969;DHT22;8085;53.472;9.794;2023-04-26T09:35:41;10.50;1.00
15969;DHT22;8085;53.472;9.794;2023-04-26T09:38:10;10.70;1.00
15969;DHT22;8085;53.472;9.794;2023-04-26T09:40:40;10.40;99.90
15969;DHT22;8085;53.472;9.794;2023-04-26T09:43:08;9.80;1.00
15969;DHT22;8085;53.472;9.794;2023-04-26T09:45:43;9.50;1.00
15969;DHT22;8085;53.472;9.794;2023-04-26T09:48:16;9.50;1.00
15969;DHT22;8085;53.472;9.794;2023-04-26T09:50:43;9.90;99.90
15969;DHT22;8085;53.472;9.794;2023-04-26T09:53:23;9.90;99.90
15969;DHT22;8085;53.472;9.794;2023-04-26T09:55:52;9.70;99.90
15969;DHT22;8085;53.472;9.794;2023-04-26T09:58:19;9.50;99.90
15969;DHT22;8085;53.472;9.794;2023-04-26T10:00:49;9.10;99.90
15969;DHT22;8085;53.472;9.794;2023-04-26T10:03:17;8.00;1.00
15969;DHT22;8085;53.472;9.794;2023-04-26T10:05:45;7.40;1.00
15969;DHT22;8085;53.472;9.794;2023-04-26T10:08:12;6.90;37.00
15969;DHT22;8085;53.472;9.794;2023-04-26T10:10:40;6.60;66.70
15969;DHT22;8085;53.472;9.794;2023-04-26T10:13:10;6.60;88.30
15969;DHT22;8085;53.472;9.794;2023-04-26T10:15:38;6.80;78.60
15969;DHT22;8085;53.472;9.794;2023-04-26T10:18:06;6.90;71.50
15969;DHT22;8085;53.472;9.794;2023-04-26T10:20:34;7.00;45.50
15969;DHT22;8085;53.472;9.794;2023-04-26T10:23:08;7.00;25.70
15969;DHT22;8085;53.472;9.794;2023-04-26T10:25:39;7.00;18.00
15969;DHT22;8085;53.472;9.794;2023-04-26T10:28:06;7.00;19.00
15969;DHT22;8085;53.472;9.794;2023-04-26T10:30:53;6.90;10.20
15969;DHT22;8085;53.472;9.794;2023-04-26T10:33:20;6.90;1.00
15969;DHT22;8085;53.472;9.794;2023-04-26T10:36:03;7.00;1.00
15969;DHT22;8085;53.472;9.794;2023-04-26T10:38:30;7.10;1.00
15969;DHT22;8085;53.472;9.794;2023-04-26T10:41:27;7.20;1.00
15969;DHT22;8085;53.472;9.794;2023-04-26T10:43:55;7.30;1.00
15969;DHT22;8085;53.472;9.794;2023-04-26T10:46:39;7.60;1.00
15969;DHT22;8085;53.472;9.794;2023-04-26T10:49:17;7.70;1.00
15969;DHT22;8085;53.472;9.794;2023-04-26T10:52:09;7.90;1.00
15969;DHT22;8085;53.472;9.794;2023-04-26T10:54:53;7.90;1.00
15969;DHT22;8085;53.472;9.794;2023-04-26T10:57:22;7.70;1.00
15969;DHT22;8085;53.472;9.794;2023-04-26T11:00:15;7.60;1.00
15969;DHT22;8085;53.472;9.794;2023-04-26T11:02:52;7.70;1.00
15969;DHT22;8085;53.472;9.794;2023-04-26T11:05:52;7.70;1.00
15969;DHT22;8085;53.472;9.794;2023-04-26T11:08:23;7.70;1.00
15969;DHT22;8085;53.472;9.794;2023-04-26T11:10:55;7.70;1.00
15969;DHT22;8085;53.472;9.794;2023-04-26T11:13:23;7.80;1.00
15969;DHT22;8085;53.472;9.794;2023-04-26T11:15:53;7.80;1.00
15969;DHT22;8085;53.472;9.794;2023-04-26T11:18:21;8.00;1.00
15969;DHT22;8085;53.472;9.794;2023-04-26T11:20:48;8.20;1.00
15969;DHT22;8085;53.472;9.794;2023-04-26T11:23:17;8.30;1.00
15969;DHT22;8085;53.472;9.794;2023-04-26T11:25:44;8.30;1.00
15969;DHT22;8085;53.472;9.794;2023-04-26T11:28:11;8.50;1.00
15969;DHT22;8085;53.472;9.794;2023-04-26T11:30:38;9.10;99.90
15969;DHT22;8085;53.472;9.794;2023-04-26T11:33:05;9.70;99.90
15969;DHT22;8085;53.472;9.794;2023-04-26T11:35:34;10.30;1.00
15969;DHT22;8085;53.472;9.794;2023-04-26T11:38:03;10.80;1.00
15969;DHT22;8085;53.472;9.794;2023-04-26T11:40:31;11.00;99.90
15969;DHT22;8085;53.472;9.794;2023-04-26T11:42:59;10.70;99.90
15969;DHT22;8085;53.472;9.794;2023-04-26T11:45:27;10.10;99.90
15969;DHT22;8085;53.472;9.794;2023-04-26T11:47:54;9.70;1.00
15969;DHT22;8085;53.472;9.794;2023-04-26T11:50:21;9.80;95.20
15969;DHT22;8085;53.472;9.794;2023-04-26T11:52:53;10.10;99.90
15969;DHT22;8085;53.472;9.794;2023-04-26T11:55:23;10.20;1.00
15969;DHT22;8085;53.472;9.794;2023-04-26T11:57:53;9.90;99.90
15969;DHT22;8085;53.472;9.794;2023-04-26T12:00:21;10.00;1.00
15969;DHT22;8085;53.472;9.794;2023-04-26T12:02:49;10.30;1.00
15969;DHT22;8085;53.472;9.794;2023-04-26T12:05:21;10.70;1.00
15969;DHT22;8085;53.472;9.794;2023-04-26T12:07:53;11.00;99.90
15969;DHT22;8085;53.472;9.794;2023-04-26T12:10:24;11.20;1.00
15969;DHT22;8085;53.472;9.794;2023-04-26T12:12:52;11.00;1.00
15969;DHT22;8085;53.472;9.794;2023-04-26T12:15:22;11.20;99.90
15969;DHT22;8085;53.472;9.794;2023-04-26T12:17:54;11.30;1.00
15969;DHT22;8085;53.472;9.794;2023-04-26T12:20:32;11.60;1.00
15969;DHT22;8085;53.472;9.794;2023-04-26T12:23:02;11.70;99.90
15969;DHT22;8085;53.472;9.794;2023-04-26T12:25:29;11.80;99.90
15969;DHT22;8085;53.472;9.794;2023-04-26T12:27:56;12.00;1.00
15969;DHT22;8085;53.472;9.794;2023-04-26T12:30:25;11.30;1.00
15969;DHT22;8085;53.472;9.794;2023-04-26T12:32:52;10.50;1.00
15969;DHT22;8085;53.472;9.794;2023-04-26T12:35:19;10.20;99.90
15969;DHT22;8085;53.472;9.794;2023-04-26T12:37:46;10.40;1.00
15969;DHT22;8085;53.472;9.794;2023-04-26T12:40:15;10.80;99.90
15969;DHT22;8085;53.472;9.794;2023-04-26T12:42:45;10.80;1.00
15969;DHT22;8085;53.472;9.794;2023-04-26T12:45:12;11.10;1.00
15969;DHT22;8085;53.472;9.794;2023-04-26T12:47:39;11.40;1.00
15969;DHT22;8085;53.472;9.794;2023-04-26T12:50:06;11.70;1.00
15969;DHT22;8085;53.472;9.794;2023-04-26T12:52:34;11.70;99.90
15969;DHT22;8085;53.472;9.794;2023-04-26T12:55:01;11.40;1.00
15969;DHT22;8085;53.472;9.794;2023-04-26T12:57:30;11.00;1.00
15969;DHT22;8085;53.472;9.794;2023-04-26T12:59:58;10.70;1.00
15969;DHT22;8085;53.472;9.794;2023-04-26T13:02:24;10.80;1.00
15969;DHT22;8085;53.472;9.794;2023-04-26T13:04:51;10.50;1.00
15969;DHT22;8085;53.472;9.794;2023-04-26T13:07:18;10.50;1.00
15969;DHT22;8085;53.472;9.794;2023-04-26T13:09:46;10.70;1.00
15969;DHT22;8085;53.472;9.794;2023-04-26T13:12:13;11.20;99.90
15969;DHT22;8085;53.472;9.794;2023-04-26T13:14:42;11.60;99.90
15969;DHT22;8085;53.472;9.794;2023-04-26T13:17:11;11.80;1.00
15969;DHT22;8085;53.472;9.794;2023-04-26T13:19:38;12.30;1.00
15969;DHT22;8085;53.472;9.794;2023-04-26T13:22:05;12.50;99.90
15969;DHT22;8085;53.472;9.794;2023-04-26T13:24:33;12.40;1.00
15969;DHT22;8085;53.472;9.794;2023-04-26T13:27:01;11.80;91.40
15969;DHT22;8085;53.472;9.794;2023-04-26T13:29:28;11.40;99.90
15969;DHT22;8085;53.472;9.794;2023-04-26T13:31:57;11.20;1.00
15969;DHT22;8085;53.472;9.794;2023-04-26T13:34:24;11.00;99.90
15969;DHT22;8085;53.472;9.794;2023-04-26T13:36:52;10.50;1.00
15969;DHT22;8085;53.472;9.794;2023-04-26T13:39:19;10.80;99.90
15969;DHT22;8085;53.472;9.794;2023-04-26T13:41:45;11.40;1.00
15969;DHT22;8085;53.472;9.794;2023-04-26T13:44:12;11.80;99.90
15969;DHT22;8085;53.472;9.794;2023-04-26T13:46:40;11.50;99.90
15969;DHT22;8085;53.472;9.794;2023-04-26T13:49:08;11.00;99.90
15969;DHT22;8085;53.472;9.794;2023-04-26T13:51:35;10.40;1.00
15969;DHT22;8085;53.472;9.794;2023-04-26T13:54:03;10.10;99.90
15969;DHT22;8085;53.472;9.794;2023-04-26T13:56:31;10.40;1.00
15969;DHT22;8085;53.472;9.794;2023-04-26T13:58:59;11.00;99.90
15969;DHT22;8085;53.472;9.794;2023-04-26T14:01:28;11.30;46.60
15969;DHT22;8085;53.472;9.794;2023-04-26T14:03:55;11.60;1.00
15969;DHT22;8085;53.472;9.794;2023-04-26T14:06:23;11.70;1.00
15969;DHT22;8085;53.472;9.794;2023-04-26T14:08:51;11.80;99.90
15969;DHT22;8085;53.472;9.794;2023-04-26T14:11:18;11.70;99.90
15969;DHT22;8085;53.472;9.794;2023-04-26T14:13:45;11.60;55.10
15969;DHT22;8085;53.472;9.794;2023-04-26T14:16:12;11.60;1.00
15969;DHT22;8085;53.472;9.794;2023-04-26T14:18:39;11.30;1.00
15969;DHT22;8085;53.472;9.794;2023-04-26T14:21:09;11.30;1.00
15969;DHT22;8085;53.472;9.794;2023-04-26T14:23:39;11.40;62.00
15969;DHT22;8085;53.472;9.794;2023-04-26T14:26:06;11.60;99.90
15969;DHT22;8085;53.472;9.794;2023-04-26T14:28:33;11.10;1.00
15969;DHT22;8085;53.472;9.794;2023-04-26T14:31:01;10.60;1.00
15969;DHT22;8085;53.472;9.794;2023-04-26T14:33:30;10.90;96.30
15969;DHT22;8085;53.472;9.794;2023-04-26T14:35:57;11.30;1.00
15969;DHT22;8085;53.472;9.794;2023-04-26T14:38:25;11.70;1.00
15969;DHT22;8085;53.472;9.794;2023-04-26T14:40:53;11.90;1.00
15969;DHT22;8085;53.472;9.794;2023-04-26T14:43:23;11.60;1.00
15969;DHT22;8085;53.472;9.794;2023-04-26T14:45:50;11.10;1.00
15969;DHT22;8085;53.472;9.794;2023-04-26T14:48:17;10.60;1.00
15969;DHT22;8085;53.472;9.794;2023-04-26T14:50:44;10.50;1.00
15969;DHT22;8085;53.472;9.794;2023-04-26T14:53:14;10.60;1.00
15969;DHT22;8085;53.472;9.794;2023-04-26T14:55:41;10.60;1.00
15969;DHT22;8085;53.472;9.794;2023-04-26T14:58:09;10.60;1.00
15969;DHT22;8085;53.472;9.794;2023-04-26T15:00:39;10.30;1.00
15969;DHT22;8085;53.472;9.794;2023-04-26T15:03:13;10.40;1.00
15969;DHT22;8085;53.472;9.794;2023-04-26T15:05:44;10.50;1.00
15969;DHT22;8085;53.472;9.794;2023-04-26T15:08:14;10.60;99.90
15969;DHT22;8085;53.472;9.794;2023-04-26T15:10:41;10.70;99.90
15969;DHT22;8085;53.472;9.794;2023-04-26T15:13:09;10.70;99.90
15969;DHT22;8085;53.472;9.794;2023-04-26T15:15:36;10.60;87.00
15969;DHT22;8085;53.472;9.794;2023-04-26T15:18:04;10.40;99.90
15969;DHT22;8085;53.472;9.794;2023-04-26T15:20:31;10.50;99.90
15969;DHT22;8085;53.472;9.794;2023-04-26T15:23:00;10.80;99.90
15969;DHT22;8085;53.472;9.794;2023-04-26T15:25:27;10.70;99.90
15969;DHT22;8085;53.472;9.794;2023-04-26T15:27:57;10.50;99.90
15969;DHT22;8085;53.472;9.794;2023-04-26T15:30:25;10.40;1.00
15969;DHT22;8085;53.472;9.794;2023-04-26T15:32:55;10.30;1.00
15969;DHT22;8085;53.472;9.794;2023-04-26T15:35:25;10.00;99.90
15969;DHT22;8085;53.472;9.794;2023-04-26T15:37:52;9.70;1.00
15969;DHT22;8085;53.472;9.794;2023-04-26T15:40:19;9.70;99.90
15969;DHT22;8085;53.472;9.794;2023-04-26T15:42:46;9.50;1.00
15969;DHT22;8085;53.472;9.794;2023-04-26T15:45:14;9.50;97.40
15969;DHT22;8085;53.472;9.794;2023-04-26T15:47:42;9.60;99.90
15969;DHT22;8085;53.472;9.794;2023-04-26T15:50:16;9.50;99.90
15969;DHT22;8085;53.472;9.794;2023-04-26T15:52:43;9.50;1.00
15969;DHT22;8085;53.472;9.794;2023-04-26T15:55:11;9.70;99.90
15969;DHT22;8085;53.472;9.794;2023-04-26T15:57:40;10.30;99.90
15969;DHT22;8085;53.472;9.794;2023-04-26T16:00:08;10.60;1.00
15969;DHT22;8085;53.472;9.794;2023-04-26T16:02:38;10.50;1.00
15969;DHT22;8085;53.472;9.794;2023-04-26T16:05:08;10.20;1.00
15969;DHT22;8085;53.472;9.794;2023-04-26T16:07:38;10.00;99.90
15969;DHT22;8085;53.472;9.794;2023-04-26T16:10:07;9.60;99.90